sensor_id;sensor_type;location;lat;lon;timestamp;temperature;humidity
51902;DHT22;37929;53.218;6.548;2023-06-19T00:00:13;22.20;99.80
51902;DHT22;37929;53.218;6.548;2023-06-19T00:02:41;22.20;99.80
51902;DHT22;37929;53.218;6.548;2023-06-19T00:05:08;22.20;99.80
51902;DHT22;37929;53.218;6.548;2023-06-19T00:07:35;22.20;99.90
51902;DHT22;37929;53.218;6.548;2023-06-19T00:10:01;22.20;99.90
51902;DHT22;37929;53.218;6.548;2023-06-19T00:12:27;22.10;99.80
51902;DHT22;37929;53.218;6.548;2023-06-19T00:14:53;22.10;99.90
51902;DHT22;37929;53.218;6.548;2023-06-19T00:17:18;22.10;99.80
51902;DHT22;37929;53.218;6.548;2023-06-19T00:19:44;22.10;99.80
51902;DHT22;37929;53.218;6.548;2023-06-19T00:22:10;22.10;99.80
51902;DHT22;37929;53.218;6.548;2023-06-19T00:24:36;22.10;99.80
51902;DHT22;37929;53.218;6.548;2023-06-19T00:27:01;22.10;99.90
51902;DHT22;37929;53.218;6.548;2023-06-19T00:29:31;22.10;99.80
51902;DHT22;37929;53.218;6.548;2023-06-19T00:32:01;22.10;99.80
51902;DHT22;37929;53.218;6.548;2023-06-19T00:34:29;22.10;99.80
51902;DHT22;37929;53.218;6.548;2023-06-19T00:36:56;22.10;99.80
51902;DHT22;37929;53.218;6.548;2023-06-19T00:39:23;22.10;99.70
51902;DHT22;37929;53.218;6.548;2023-06-19T00:41:51;22.10;99.80
51902;DHT22;37929;53.218;6.548;2023-06-19T00:44:16;22.10;99.70
51902;DHT22;37929;53.218;6.548;2023-06-19T00:46:42;22.00;99.70
51902;DHT22;37929;53.218;6.548;2023-06-19T00:49:08;22.00;99.70
51902;DHT22;37929;53.218;6.548;2023-06-19T00:51:34;22.00;99.70
51902;DHT22;37929;53.218;6.548;2023-06-19T00:54:00;22.00;99.70
51902;DHT22;37929;53.218;6.548;2023-06-19T00:56:26;22.00;99.60
51902;DHT22;37929;53.218;6.548;2023-06-19T00:58:56;22.00;99.60
51902;DHT22;37929;53.218;6.548;2023-06-19T01:01:21;22.00;99.60
51902;DHT22;37929;53.218;6.548;2023-06-19T01:03:49;22.00;99.50
51902;DHT22;37929;53.218;6.548;2023-06-19T01:06:19;22.00;99.40
51902;DHT22;37929;53.218;6.548;2023-06-19T01:08:58;22.00;99.30
51902;DHT22;37929;53.218;6.548;2023-06-19T01:11:33;22.00;99.30
51902;DHT22;37929;53.218;6.548;2023-06-19T01:14:09;21.90;99.20
51902;DHT22;37929;53.218;6.548;2023-06-19T01:16:38;21.90;99.10
51902;DHT22;37929;53.218;6.548;2023-06-19T01:19:05;21.90;99.00
51902;DHT22;37929;53.218;6.548;2023-06-19T01:21:35;21.90;99.10
51902;DHT22;37929;53.218;6.548;2023-06-19T01:24:02;21.90;99.00
51902;DHT22;37929;53.218;6.548;2023-06-19T01:26:28;21.90;99.00
51902;DHT22;37929;53.218;6.548;2023-06-19T01:28:58;21.90;98.90
51902;DHT22;37929;53.218;6.548;2023-06-19T01:31:35;21.90;98.80
51902;DHT22;37929;53.218;6.548;2023-06-19T01:34:04;21.80;98.60
51902;DHT22;37929;53.218;6.548;2023-06-19T01:36:32;21.80;98.50
51902;DHT22;37929;53.218;6.548;2023-06-19T01:38:58;21.80;98.40
51902;DHT22;37929;53.218;6.548;2023-06-19T01:41:25;21.80;98.20
51902;DHT22;37929;53.218;6.548;2023-06-19T01:43:52;21.80;98.20
51902;DHT22;37929;53.218;6.548;2023-06-19T01:46:18;21.80;98.10
51902;DHT22;37929;53.218;6.548;2023-06-19T01:48:44;21.80;98.00
51902;DHT22;37929;53.218;6.548;2023-06-19T01:51:10;21.80;97.90
51902;DHT22;37929;53.218;6.548;2023-06-19T01:53:36;21.80;97.90
51902;DHT22;37929;53.218;6.548;2023-06-19T01:56:02;21.80;97.90
51902;DHT22;37929;53.218;6.548;2023-06-19T01:58:28;21.80;97.90
51902;DHT22;37929;53.218;6.548;2023-06-19T02:00:54;21.70;97.80
51902;DHT22;37929;53.218;6.548;2023-06-19T02:03:21;21.70;97.70
51902;DHT22;37929;53.218;6.548;2023-06-19T02:05:47;21.70;97.70
51902;DHT22;37929;53.218;6.548;2023-06-19T02:08:12;21.70;97.60
51902;DHT22;37929;53.218;6.548;2023-06-19T02:10:38;21.70;97.40
51902;DHT22;37929;53.218;6.548;2023-06-19T02:13:04;21.70;97.30
51902;DHT22;37929;53.218;6.548;2023-06-19T02:15:29;21.70;97.30
51902;DHT22;37929;53.218;6.548;2023-06-19T02:17:56;21.70;97.20
51902;DHT22;37929;53.218;6.548;2023-06-19T02:20:25;21.70;97.10
51902;DHT22;37929;53.218;6.548;2023-06-19T02:22:51;21.70;97.10
51902;DHT22;37929;53.218;6.548;2023-06-19T02:25:17;21.70;97.00
51902;DHT22;37929;53.218;6.548;2023-06-19T02:27:43;21.70;97.00
51902;DHT22;37929;53.218;6.548;2023-06-19T02:30:09;21.70;96.90
51902;DHT22;37929;53.218;6.548;2023-06-19T02:32:35;21.70;96.80
51902;DHT22;37929;53.218;6.548;2023-06-19T02:35:01;21.70;96.60
51902;DHT22;37929;53.218;6.548;2023-06-19T02:37:27;21.70;96.40
51902;DHT22;37929;53.218;6.548;2023-06-19T02:39:52;21.70;96.20
51902;DHT22;37929;53.218;6.548;2023-06-19T02:42:18;21.80;95.90
51902;DHT22;37929;53.218;6.548;2023-06-19T02:44:44;21.80;95.80
51902;DHT22;37929;53.218;6.548;2023-06-19T02:47:11;21.80;95.60
51902;DHT22;37929;53.218;6.548;2023-06-19T02:49:36;21.90;95.50
51902;DHT22;37929;53.218;6.548;2023-06-19T02:52:03;21.90;95.40
51902;DHT22;37929;53.218;6.548;2023-06-19T02:54:29;21.90;95.20
51902;DHT22;37929;53.218;6.548;2023-06-19T02:56:58;21.90;95.10
51902;DHT22;37929;53.218;6.548;2023-06-19T02:59:25;21.90;95.00
51902;DHT22;37929;53.218;6.548;2023-06-19T03:01:51;21.90;95.00
51902;DHT22;37929;53.218;6.548;2023-06-19T03:04:17;21.90;95.00
51902;DHT22;37929;53.218;6.548;2023-06-19T03:06:43;21.90;95.00
51902;DHT22;37929;53.218;6.548;2023-06-19T03:09:09;21.90;95.00
51902;DHT22;37929;53.218;6.548;2023-06-19T03:11:41;21.90;95.00
51902;DHT22;37929;53.218;6.548;2023-06-19T03:14:07;21.90;94.80
51902;DHT22;37929;53.218;6.548;2023-06-19T03:16:34;21.90;94.80
51902;DHT22;37929;53.218;6.548;2023-06-19T03:19:00;21.90;94.60
51902;DHT22;37929;53.218;6.548;2023-06-19T03:21:26;21.90;94.60
51902;DHT22;37929;53.218;6.548;2023-06-19T03:23:52;21.90;94.60
51902;DHT22;37929;53.218;6.548;2023-06-19T03:26:19;21.90;94.60
51902;DHT22;37929;53.218;6.548;2023-06-19T03:28:45;21.90;94.50
51902;DHT22;37929;53.218;6.548;2023-06-19T03:31:14;21.90;94.60
51902;DHT22;37929;53.218;6.548;2023-06-19T03:33:40;21.90;94.60
51902;DHT22;37929;53.218;6.548;2023-06-19T03:36:06;21.90;94.70
51902;DHT22;37929;53.218;6.548;2023-06-19T03:38:31;21.90;94.70
51902;DHT22;37929;53.218;6.548;2023-06-19T03:40:57;21.80;94.80
51902;DHT22;37929;53.218;6.548;2023-06-19T03:43:23;21.90;94.90
51902;DHT22;37929;53.218;6.548;2023-06-19T03:45:49;21.80;95.00
51902;DHT22;37929;53.218;6.548;2023-06-19T03:48:16;21.80;95.00
51902;DHT22;37929;53.218;6.548;2023-06-19T03:50:42;21.80;95.10
51902;DHT22;37929;53.218;6.548;2023-06-19T03:53:08;21.80;95.10
51902;DHT22;37929;53.218;6.548;2023-06-19T03:55:33;21.80;95.10
51902;DHT22;37929;53.218;6.548;2023-06-19T03:58:02;21.90;95.20
51902;DHT22;37929;53.218;6.548;2023-06-19T04:00:28;21.90;95.20
51902;DHT22;37929;53.218;6.548;2023-06-19T04:02:54;21.80;95.20
51902;DHT22;37929;53.218;6.548;2023-06-19T04:05:20;21.90;95.30
51902;DHT22;37929;53.218;6.548;2023-06-19T04:07:46;21.80;95.40
51902;DHT22;37929;53.218;6.548;2023-06-19T04:10:11;21.80;95.70
51902;DHT22;37929;53.218;6.548;2023-06-19T04:12:38;21.80;95.90
51902;DHT22;37929;53.218;6.548;2023-06-19T04:15:06;21.70;96.10
51902;DHT22;37929;53.218;6.548;2023-06-19T04:17:31;21.70;96.30
51902;DHT22;37929;53.218;6.548;2023-06-19T04:19:57;21.70;96.40
51902;DHT22;37929;53.218;6.548;2023-06-19T04:22:23;21.60;96.80
51902;DHT22;37929;53.218;6.548;2023-06-19T04:24:49;21.60;96.90
51902;DHT22;37929;53.218;6.548;2023-06-19T04:27:14;21.60;97.10
51902;DHT22;37929;53.218;6.548;2023-06-19T04:29:40;21.50;97.30
51902;DHT22;37929;53.218;6.548;2023-06-19T04:32:06;21.50;97.50
51902;DHT22;37929;53.218;6.548;2023-06-19T04:34:41;21.40;97.90
51902;DHT22;37929;53.218;6.548;2023-06-19T04:37:12;21.40;98.00
51902;DHT22;37929;53.218;6.548;2023-06-19T04:39:37;21.40;98.20
51902;DHT22;37929;53.218;6.548;2023-06-19T04:42:03;21.30;98.30
51902;DHT22;37929;53.218;6.548;2023-06-19T04:44:29;21.30;98.60
51902;DHT22;37929;53.218;6.548;2023-06-19T04:47:00;21.20;99.00
51902;DHT22;37929;53.218;6.548;2023-06-19T04:49:31;21.20;99.20
51902;DHT22;37929;53.218;6.548;2023-06-19T04:51:58;21.20;99.50
51902;DHT22;37929;53.218;6.548;2023-06-19T04:54:24;21.20;99.60
51902;DHT22;37929;53.218;6.548;2023-06-19T04:56:50;21.20;99.90
51902;DHT22;37929;53.218;6.548;2023-06-19T04:59:16;21.10;99.90
51902;DHT22;37929;53.218;6.548;2023-06-19T05:01:44;21.10;99.90
51902;DHT22;37929;53.218;6.548;2023-06-19T05:04:09;21.10;99.90
51902;DHT22;37929;53.218;6.548;2023-06-19T05:06:37;21.00;99.90
51902;DHT22;37929;53.218;6.548;2023-06-19T05:09:03;21.00;99.90
51902;DHT22;37929;53.218;6.548;2023-06-19T05:11:28;21.00;99.90
51902;DHT22;37929;53.218;6.548;2023-06-19T05:13:57;21.00;99.90
51902;DHT22;37929;53.218;6.548;2023-06-19T05:16:23;21.00;99.90
51902;DHT22;37929;53.218;6.548;2023-06-19T05:18:49;20.90;99.90
51902;DHT22;37929;53.218;6.548;2023-06-19T05:21:16;20.90;99.90
51902;DHT22;37929;53.218;6.548;2023-06-19T05:23:42;20.90;99.90
51902;DHT22;37929;53.218;6.548;2023-06-19T05:26:08;20.90;99.90
51902;DHT22;37929;53.218;6.548;2023-06-19T05:28:34;20.90;99.90
51902;DHT22;37929;53.218;6.548;2023-06-19T05:31:00;20.90;99.90
51902;DHT22;37929;53.218;6.548;2023-06-19T05:33:25;20.80;99.90
51902;DHT22;37929;53.218;6.548;2023-06-19T05:35:52;20.80;99.90
51902;DHT22;37929;53.218;6.548;2023-06-19T05:38:22;20.80;99.90
51902;DHT22;37929;53.218;6.548;2023-06-19T05:40:50;20.80;99.90
51902;DHT22;37929;53.218;6.548;2023-06-19T05:43:16;20.80;99.90
51902;DHT22;37929;53.218;6.548;2023-06-19T05:45:41;20.90;99.90
51902;DHT22;37929;53.218;6.548;2023-06-19T05:48:07;20.90;99.90
51902;DHT22;37929;53.218;6.548;2023-06-19T05:50:33;20.90;99.90
51902;DHT22;37929;53.218;6.548;2023-06-19T05:52:58;20.90;99.90
51902;DHT22;37929;53.218;6.548;2023-06-19T05:55:25;20.90;99.90
51902;DHT22;37929;53.218;6.548;2023-06-19T05:57:53;20.90;99.90
51902;DHT22;37929;53.218;6.548;2023-06-19T06:00:19;20.90;99.90
51902;DHT22;37929;53.218;6.548;2023-06-19T06:02:45;20.90;99.90
51902;DHT22;37929;53.218;6.548;2023-06-19T06:05:11;20.90;99.90
51902;DHT22;37929;53.218;6.548;2023-06-19T06:07:37;20.90;99.90
51902;DHT22;37929;53.218;6.548;2023-06-19T06:10:03;21.00;99.90
51902;DHT22;37929;53.218;6.548;2023-06-19T06:12:29;21.00;99.90
51902;DHT22;37929;53.218;6.548;2023-06-19T06:14:58;21.00;99.90
51902;DHT22;37929;53.218;6.548;2023-06-19T06:17:24;21.00;99.90
51902;DHT22;37929;53.218;6.548;2023-06-19T06:19:50;20.90;99.90
51902;DHT22;37929;53.218;6.548;2023-06-19T06:22:15;20.90;99.90
51902;DHT22;37929;53.218;6.548;2023-06-19T06:24:41;20.90;99.90
51902;DHT22;37929;53.218;6.548;2023-06-19T06:27:07;20.90;99.90
51902;DHT22;37929;53.218;6.548;2023-06-19T06:29:32;20.90;99.90
51902;DHT22;37929;53.218;6.548;2023-06-19T06:32:05;20.90;99.90
51902;DHT22;37929;53.218;6.548;2023-06-19T06:34:32;20.90;99.90
51902;DHT22;37929;53.218;6.548;2023-06-19T06:36:58;20.90;99.90
51902;DHT22;37929;53.218;6.548;2023-06-19T06:39:25;20.90;99.90
51902;DHT22;37929;53.218;6.548;2023-06-19T06:41:51;20.90;99.90
51902;DHT22;37929;53.218;6.548;2023-06-19T06:44:17;20.90;99.90
51902;DHT22;37929;53.218;6.548;2023-06-19T06:46:42;20.90;99.90
51902;DHT22;37929;53.218;6.548;2023-06-19T06:49:08;20.90;99.90
51902;DHT22;37929;53.218;6.548;2023-06-19T06:51:34;20.90;99.90
51902;DHT22;37929;53.218;6.548;2023-06-19T06:53:59;20.90;99.90
51902;DHT22;37929;53.218;6.548;2023-06-19T06:56:25;20.90;99.90
51902;DHT22;37929;53.218;6.548;2023-06-19T06:58:51;20.90;99.90
51902;DHT22;37929;53.218;6.548;2023-06-19T07:01:17;20.90;99.90
51902;DHT22;37929;53.218;6.548;2023-06-19T07:03:43;20.90;99.90
51902;DHT22;37929;53.218;6.548;2023-06-19T07:06:09;20.90;99.90
51902;DHT22;37929;53.218;6.548;2023-06-19T07:08:34;20.90;99.90
51902;DHT22;37929;53.218;6.548;2023-06-19T07:11:00;21.00;99.90
51902;DHT22;37929;53.218;6.548;2023-06-19T07:13:26;20.90;99.90
51902;DHT22;37929;53.218;6.548;2023-06-19T07:15:51;20.90;99.90
51902;DHT22;37929;53.218;6.548;2023-06-19T07:18:17;20.90;99.90
51902;DHT22;37929;53.218;6.548;2023-06-19T07:20:43;20.80;99.90
51902;DHT22;37929;53.218;6.548;2023-06-19T07:23:10;20.80;99.90
51902;DHT22;37929;53.218;6.548;2023-06-19T07:25:36;20.80;99.90
51902;DHT22;37929;53.218;6.548;2023-06-19T07:28:02;20.70;99.90
51902;DHT22;37929;53.218;6.548;2023-06-19T07:30:32;20.70;99.90
51902;DHT22;37929;53.218;6.548;2023-06-19T07:32:58;20.70;99.90
51902;DHT22;37929;53.218;6.548;2023-06-19T07:35:24;20.60;99.90
51902;DHT22;37929;53.218;6.548;2023-06-19T07:37:49;20.50;99.90
51902;DHT22;37929;53.218;6.548;2023-06-19T07:40:15;20.40;99.90
51902;DHT22;37929;53.218;6.548;2023-06-19T07:42:41;20.40;99.90
51902;DHT22;37929;53.218;6.548;2023-06-19T07:45:07;20.40;99.90
51902;DHT22;37929;53.218;6.548;2023-06-19T07:47:33;20.40;99.90
51902;DHT22;37929;53.218;6.548;2023-06-19T07:49:59;20.40;99.90
51902;DHT22;37929;53.218;6.548;2023-06-19T07:52:25;20.40;99.90
51902;DHT22;37929;53.218;6.548;2023-06-19T07:54:58;20.40;99.90
51902;DHT22;37929;53.218;6.548;2023-06-19T07:57:25;20.40;99.90
51902;DHT22;37929;53.218;6.548;2023-06-19T07:59:52;20.40;99.90
51902;DHT22;37929;53.218;6.548;2023-06-19T08:02:18;20.30;99.90
51902;DHT22;37929;53.218;6.548;2023-06-19T08:04:45;20.30;99.90
51902;DHT22;37929;53.218;6.548;2023-06-19T08:07:14;20.40;99.90
51902;DHT22;37929;53.218;6.548;2023-06-19T08:09:40;20.30;99.90
51902;DHT22;37929;53.218;6.548;2023-06-19T08:12:06;20.40;99.90
51902;DHT22;37929;53.218;6.548;2023-06-19T08:14:34;20.40;99.90
51902;DHT22;37929;53.218;6.548;2023-06-19T08:17:00;20.50;99.90
51902;DHT22;37929;53.218;6.548;2023-06-19T08:19:26;20.50;99.90
51902;DHT22;37929;53.218;6.548;2023-06-19T08:21:52;20.40;99.90
51902;DHT22;37929;53.218;6.548;2023-06-19T08:24:18;20.40;99.90
51902;DHT22;37929;53.218;6.548;2023-06-19T08:26:44;20.40;99.90
51902;DHT22;37929;53.218;6.548;2023-06-19T08:29:09;20.40;99.90
51902;DHT22;37929;53.218;6.548;2023-06-19T08:31:35;20.50;99.90
51902;DHT22;37929;53.218;6.548;2023-06-19T08:34:01;20.50;99.90
51902;DHT22;37929;53.218;6.548;2023-06-19T08:36:33;20.40;99.90
51902;DHT22;37929;53.218;6.548;2023-06-19T08:38:59;20.40;99.90
51902;DHT22;37929;53.218;6.548;2023-06-19T08:41:25;20.40;99.90
51902;DHT22;37929;53.218;6.548;2023-06-19T08:43:50;20.50;99.90
51902;DHT22;37929;53.218;6.548;2023-06-19T08:46:17;20.50;99.90
51902;DHT22;37929;53.218;6.548;2023-06-19T08:48:44;20.40;99.90
51902;DHT22;37929;53.218;6.548;2023-06-19T08:51:11;20.40;99.90
51902;DHT22;37929;53.218;6.548;2023-06-19T08:54:04;20.40;99.90
51902;DHT22;37929;53.218;6.548;2023-06-19T08:56:34;20.30;99.90
51902;DHT22;37929;53.218;6.548;2023-06-19T08:59:14;20.40;99.90
51902;DHT22;37929;53.218;6.548;2023-06-19T09:01:45;20.30;99.90
51902;DHT22;37929;53.218;6.548;2023-06-19T09:04:18;20.20;99.90
51902;DHT22;37929;53.218;6.548;2023-06-19T09:09:14;20.20;99.90
51902;DHT22;37929;53.218;6.548;2023-06-19T09:11:40;20.20;99.90
51902;DHT22;37929;53.218;6.548;2023-06-19T09:14:10;20.30;99.90
51902;DHT22;37929;53.218;6.548;2023-06-19T09:16:40;20.40;99.90
51902;DHT22;37929;53.218;6.548;2023-06-19T09:19:06;20.40;99.90
51902;DHT22;37929;53.218;6.548;2023-06-19T09:21:35;20.40;99.90
51902;DHT22;37929;53.218;6.548;2023-06-19T09:24:07;20.50;99.90
51902;DHT22;37929;53.218;6.548;2023-06-19T09:26:34;20.60;99.90
51902;DHT22;37929;53.218;6.548;2023-06-19T09:29:13;20.70;99.90
51902;DHT22;37929;53.218;6.548;2023-06-19T09:31:41;20.70;99.90
51902;DHT22;37929;53.218;6.548;2023-06-19T09:34:08;20.70;99.90
51902;DHT22;37929;53.218;6.548;2023-06-19T09:36:35;20.70;99.90
51902;DHT22;37929;53.218;6.548;2023-06-19T09:39:02;20.70;99.90
51902;DHT22;37929;53.218;6.548;2023-06-19T09:41:30;20.70;99.90
51902;DHT22;37929;53.218;6.548;2023-06-19T09:43:58;20.70;99.90
51902;DHT22;37929;53.218;6.548;2023-06-19T09:46:32;20.70;99.90
51902;DHT22;37929;53.218;6.548;2023-06-19T09:49:01;20.70;99.90
51902;DHT22;37929;53.218;6.548;2023-06-19T09:51:37;20.70;99.90
51902;DHT22;37929;53.218;6.548;2023-06-19T09:54:05;20.60;99.90
51902;DHT22;37929;53.218;6.548;2023-06-19T09:56:32;20.60;99.90
51902;DHT22;37929;53.218;6.548;2023-06-19T09:59:00;20.60;99.90
51902;DHT22;37929;53.218;6.548;2023-06-19T10:01:30;20.60;99.90
51902;DHT22;37929;53.218;6.548;2023-06-19T10:04:07;20.60;99.90
51902;DHT22;37929;53.218;6.548;2023-06-19T10:06:45;20.60;99.90
51902;DHT22;37929;53.218;6.548;2023-06-19T10:09:13;20.60;99.90
51902;DHT22;37929;53.218;6.548;2023-06-19T10:11:50;20.60;99.90
51902;DHT22;37929;53.218;6.548;2023-06-19T10:14:23;20.60;99.90
51902;DHT22;37929;53.218;6.548;2023-06-19T10:16:50;20.50;99.90
51902;DHT22;37929;53.218;6.548;2023-06-19T10:19:17;20.50;99.90
51902;DHT22;37929;53.218;6.548;2023-06-19T10:21:54;20.50;99.90
51902;DHT22;37929;53.218;6.548;2023-06-19T10:24:23;20.40;99.90
51902;DHT22;37929;53.218;6.548;2023-06-19T10:26:56;20.30;99.90
51902;DHT22;37929;53.218;6.548;2023-06-19T10:29:24;20.40;99.90
51902;DHT22;37929;53.218;6.548;2023-06-19T10:31:51;20.30;99.90
51902;DHT22;37929;53.218;6.548;2023-06-19T10:34:16;20.30;99.90
51902;DHT22;37929;53.218;6.548;2023-06-19T10:36:42;20.30;99.90
51902;DHT22;37929;53.218;6.548;2023-06-19T10:39:08;20.30;99.90
51902;DHT22;37929;53.218;6.548;2023-06-19T10:41:34;20.30;99.90
51902;DHT22;37929;53.218;6.548;2023-06-19T10:44:04;20.30;99.90
51902;DHT22;37929;53.218;6.548;2023-06-19T10:46:34;20.40;99.90
51902;DHT22;37929;53.218;6.548;2023-06-19T10:49:05;20.50;99.90
51902;DHT22;37929;53.218;6.548;2023-06-19T10:51:33;20.40;99.90
51902;DHT22;37929;53.218;6.548;2023-06-19T10:53:59;20.50;99.90
51902;DHT22;37929;53.218;6.548;2023-06-19T10:56:25;20.50;99.90
51902;DHT22;37929;53.218;6.548;2023-06-19T11:01:43;20.50;99.90
51902;DHT22;37929;53.218;6.548;2023-06-19T11:04:11;20.60;99.90
51902;DHT22;37929;53.218;6.548;2023-06-19T11:06:38;20.70;99.90
51902;DHT22;37929;53.218;6.548;2023-06-19T11:09:06;20.70;99.90
51902;DHT22;37929;53.218;6.548;2023-06-19T11:11:50;20.80;99.90
51902;DHT22;37929;53.218;6.548;2023-06-19T11:14:16;20.80;99.90
51902;DHT22;37929;53.218;6.548;2023-06-19T11:16:46;20.80;99.90
51902;DHT22;37929;53.218;6.548;2023-06-19T11:19:18;20.80;99.90
51902;DHT22;37929;53.218;6.548;2023-06-19T11:21:46;20.80;99.90
51902;DHT22;37929;53.218;6.548;2023-06-19T11:24:13;20.90;99.90
51902;DHT22;37929;53.218;6.548;2023-06-19T11:26:43;20.90;99.90
51902;DHT22;37929;53.218;6.548;2023-06-19T11:29:22;20.90;99.90
51902;DHT22;37929;53.218;6.548;2023-06-19T11:31:49;21.00;99.90
51902;DHT22;37929;53.218;6.548;2023-06-19T11:34:16;21.10;99.90
51902;DHT22;37929;53.218;6.548;2023-06-19T11:36:42;21.20;99.90
51902;DHT22;37929;53.218;6.548;2023-06-19T11:39:12;21.30;99.90
51902;DHT22;37929;53.218;6.548;2023-06-19T11:41:43;21.40;99.90
51902;DHT22;37929;53.218;6.548;2023-06-19T11:44:09;21.50;99.90
51902;DHT22;37929;53.218;6.548;2023-06-19T11:46:35;21.40;99.90
51902;DHT22;37929;53.218;6.548;2023-06-19T11:49:27;21.50;99.90
51902;DHT22;37929;53.218;6.548;2023-06-19T11:51:58;21.60;99.90
51902;DHT22;37929;53.218;6.548;2023-06-19T11:54:23;21.60;99.90
51902;DHT22;37929;53.218;6.548;2023-06-19T11:56:49;21.70;99.90
51902;DHT22;37929;53.218;6.548;2023-06-19T11:59:15;21.70;99.90
51902;DHT22;37929;53.218;6.548;2023-06-19T12:01:40;21.80;99.90
51902;DHT22;37929;53.218;6.548;2023-06-19T12:04:06;21.80;99.90
51902;DHT22;37929;53.218;6.548;2023-06-19T12:06:32;21.90;99.90
51902;DHT22;37929;53.218;6.548;2023-06-19T12:08:58;22.10;99.90
51902;DHT22;37929;53.218;6.548;2023-06-19T12:11:25;22.00;99.90
51902;DHT22;37929;53.218;6.548;2023-06-19T12:13:50;22.00;99.90
51902;DHT22;37929;53.218;6.548;2023-06-19T12:16:18;22.10;99.90
51902;DHT22;37929;53.218;6.548;2023-06-19T12:18:44;22.20;99.90
51902;DHT22;37929;53.218;6.548;2023-06-19T12:21:10;22.20;99.90
51902;DHT22;37929;53.218;6.548;2023-06-19T12:23:36;22.10;99.90
51902;DHT22;37929;53.218;6.548;2023-06-19T12:26:02;22.00;99.90
51902;DHT22;37929;53.218;6.548;2023-06-19T12:28:28;22.10;99.90
51902;DHT22;37929;53.218;6.548;2023-06-19T12:30:55;22.00;99.90
51902;DHT22;37929;53.218;6.548;2023-06-19T12:33:22;22.00;99.90
51902;DHT22;37929;53.218;6.548;2023-06-19T12:35:48;22.00;99.90
51902;DHT22;37929;53.218;6.548;2023-06-19T12:38:14;22.00;99.90
51902;DHT22;37929;53.218;6.548;2023-06-19T12:40:40;22.10;99.90
51902;DHT22;37929;53.218;6.548;2023-06-19T12:43:06;22.30;99.90
51902;DHT22;37929;53.218;6.548;2023-06-19T12:45:32;22.40;99.90
51902;DHT22;37929;53.218;6.548;2023-06-19T12:47:58;22.40;99.90
51902;DHT22;37929;53.218;6.548;2023-06-19T12:50:23;22.30;99.90
51902;DHT22;37929;53.218;6.548;2023-06-19T12:52:50;22.40;99.90
51902;DHT22;37929;53.218;6.548;2023-06-19T12:55:16;22.50;99.90
51902;DHT22;37929;53.218;6.548;2023-06-19T12:57:42;22.80;99.90
51902;DHT22;37929;53.218;6.548;2023-06-19T13:00:11;22.80;99.90
51902;DHT22;37929;53.218;6.548;2023-06-19T13:02:41;22.90;99.90
51902;DHT22;37929;53.218;6.548;2023-06-19T13:05:11;23.00;99.90
51902;DHT22;37929;53.218;6.548;2023-06-19T13:07:37;23.10;99.90
51902;DHT22;37929;53.218;6.548;2023-06-19T13:10:03;23.30;99.90
51902;DHT22;37929;53.218;6.548;2023-06-19T13:12:31;23.40;99.90
51902;DHT22;37929;53.218;6.548;2023-06-19T13:14:58;23.50;99.90
51902;DHT22;37929;53.218;6.548;2023-06-19T13:17:24;23.40;99.90
51902;DHT22;37929;53.218;6.548;2023-06-19T13:19:49;23.30;99.90
51902;DHT22;37929;53.218;6.548;2023-06-19T13:22:15;23.20;99.90
51902;DHT22;37929;53.218;6.548;2023-06-19T13:24:41;23.10;99.90
51902;DHT22;37929;53.218;6.548;2023-06-19T13:27:07;23.30;99.90
51902;DHT22;37929;53.218;6.548;2023-06-19T13:29:33;23.40;99.90
51902;DHT22;37929;53.218;6.548;2023-06-19T13:31:59;23.40;99.90
51902;DHT22;37929;53.218;6.548;2023-06-19T13:34:25;23.40;99.90
51902;DHT22;37929;53.218;6.548;2023-06-19T13:36:51;23.40;99.90
51902;DHT22;37929;53.218;6.548;2023-06-19T13:39:17;23.50;99.90
51902;DHT22;37929;53.218;6.548;2023-06-19T13:41:46;23.50;99.90
51902;DHT22;37929;53.218;6.548;2023-06-19T13:44:12;23.50;99.90
51902;DHT22;37929;53.218;6.548;2023-06-19T13:46:38;23.50;99.90
51902;DHT22;37929;53.218;6.548;2023-06-19T13:49:04;23.60;99.90
51902;DHT22;37929;53.218;6.548;2023-06-19T13:51:31;23.70;99.90
51902;DHT22;37929;53.218;6.548;2023-06-19T13:53:56;23.80;99.90
51902;DHT22;37929;53.218;6.548;2023-06-19T13:56:22;24.00;99.90
51902;DHT22;37929;53.218;6.548;2023-06-19T13:58:50;24.10;99.90
51902;DHT22;37929;53.218;6.548;2023-06-19T14:01:19;24.10;99.90
51902;DHT22;37929;53.218;6.548;2023-06-19T14:03:44;24.10;99.90
51902;DHT22;37929;53.218;6.548;2023-06-19T14:06:10;24.20;99.90
51902;DHT22;37929;53.218;6.548;2023-06-19T14:08:37;24.20;99.90
51902;DHT22;37929;53.218;6.548;2023-06-19T14:11:05;24.30;99.90
51902;DHT22;37929;53.218;6.548;2023-06-19T14:13:30;24.30;99.90
51902;DHT22;37929;53.218;6.548;2023-06-19T14:15:57;24.30;99.80
51902;DHT22;37929;53.218;6.548;2023-06-19T14:18:23;24.20;99.60
51902;DHT22;37929;53.218;6.548;2023-06-19T14:20:48;24.20;99.40
51902;DHT22;37929;53.218;6.548;2023-06-19T14:23:14;24.10;99.30
51902;DHT22;37929;53.218;6.548;2023-06-19T14:25:40;24.00;99.40
51902;DHT22;37929;53.218;6.548;2023-06-19T14:28:06;24.00;99.20
51902;DHT22;37929;53.218;6.548;2023-06-19T14:30:32;24.00;99.00
51902;DHT22;37929;53.218;6.548;2023-06-19T14:32:58;24.10;99.20
51902;DHT22;37929;53.218;6.548;2023-06-19T14:35:23;24.20;99.00
51902;DHT22;37929;53.218;6.548;2023-06-19T14:37:49;24.20;98.70
51902;DHT22;37929;53.218;6.548;2023-06-19T14:40:15;24.20;98.40
51902;DHT22;37929;53.218;6.548;2023-06-19T14:42:41;24.10;98.50
51902;DHT22;37929;53.218;6.548;2023-06-19T14:45:07;24.20;98.60
51902;DHT22;37929;53.218;6.548;2023-06-19T14:47:33;24.20;98.60
51902;DHT22;37929;53.218;6.548;2023-06-19T14:49:59;24.20;98.60
51902;DHT22;37929;53.218;6.548;2023-06-19T14:52:27;24.20;98.50
51902;DHT22;37929;53.218;6.548;2023-06-19T14:54:53;24.20;98.20
51902;DHT22;37929;53.218;6.548;2023-06-19T14:57:19;24.20;98.00
51902;DHT22;37929;53.218;6.548;2023-06-19T14:59:45;24.30;97.80
51902;DHT22;37929;53.218;6.548;2023-06-19T15:02:14;24.30;97.20
51902;DHT22;37929;53.218;6.548;2023-06-19T15:04:39;24.30;97.10
51902;DHT22;37929;53.218;6.548;2023-06-19T15:07:06;24.30;97.40
51902;DHT22;37929;53.218;6.548;2023-06-19T15:09:31;24.40;97.60
51902;DHT22;37929;53.218;6.548;2023-06-19T15:11:57;24.50;97.70
51902;DHT22;37929;53.218;6.548;2023-06-19T15:14:24;24.50;97.40
51902;DHT22;37929;53.218;6.548;2023-06-19T15:16:49;24.30;96.90
51902;DHT22;37929;53.218;6.548;2023-06-19T15:19:15;24.30;97.10
51902;DHT22;37929;53.218;6.548;2023-06-19T15:21:41;24.30;97.20
51902;DHT22;37929;53.218;6.548;2023-06-19T15:24:08;24.40;97.40
51902;DHT22;37929;53.218;6.548;2023-06-19T15:26:34;24.40;97.40
51902;DHT22;37929;53.218;6.548;2023-06-19T15:29:01;24.40;97.30
51902;DHT22;37929;53.218;6.548;2023-06-19T15:31:28;24.40;97.10
51902;DHT22;37929;53.218;6.548;2023-06-19T15:33:54;24.40;97.10